createdAt,value
2023-02-17T00:01:40.132Z,9.07
2023-02-17T00:06:40.988Z,7.87
2023-02-17T00:11:41.710Z,8.13
2023-02-17T00:16:43.561Z,8.52
2023-02-17T00:21:44.267Z,9.45
2023-02-17T00:26:45.159Z,8.30
2023-02-17T00:31:46.313Z,9.05
2023-02-17T00:36:47.342Z,8.82
2023-02-17T00:41:48.268Z,8.70
2023-02-17T00:46:49.789Z,8.40
2023-02-17T00:51:51.626Z,9.77
2023-02-17T00:56:52.568Z,9.05
2023-02-17T01:01:53.374Z,8.13
2023-02-17T01:06:54.211Z,9.57
2023-02-17T01:11:57.243Z,9.20
2023-02-17T01:16:58.649Z,9.48
2023-02-17T01:22:02.202Z,9.90
2023-02-17T01:27:03.050Z,9.00
2023-02-17T01:32:04.216Z,8.77
2023-02-17T01:37:05.014Z,8.88
2023-02-17T01:42:17.026Z,9.32
2023-02-17T01:47:17.796Z,9.38
2023-02-17T01:52:25.865Z,9.00
2023-02-17T01:57:31.714Z,8.98
2023-02-17T02:02:32.844Z,8.75
2023-02-17T02:07:38.133Z,8.25
2023-02-17T02:12:40.966Z,8.00
2023-02-17T02:18:13.235Z,7.87
2023-02-17T02:23:55.521Z,7.10
2023-02-17T02:33:13.003Z,5.75
2023-02-17T02:38:28.017Z,6.18
2023-02-17T02:43:30.914Z,5.37
2023-02-17T02:48:32.700Z,5.30
2023-02-17T02:56:37.817Z,5.18
2023-02-17T03:04:19.703Z,4.75
2023-02-17T03:09:23.284Z,5.45
2023-02-17T03:14:24.525Z,4.35
2023-02-17T03:19:25.801Z,5.30
2023-02-17T03:24:26.949Z,4.40
2023-02-17T03:29:27.922Z,5.32
2023-02-17T03:34:30.410Z,5.30
2023-02-17T03:39:31.140Z,4.90
2023-02-17T03:44:31.986Z,4.68
2023-02-17T03:49:32.787Z,4.70
2023-02-17T03:54:33.562Z,5.43
2023-02-17T03:59:34.540Z,4.07
2023-02-17T04:04:35.816Z,3.90
2023-02-17T04:09:36.536Z,5.10
2023-02-17T04:14:37.318Z,3.85
2023-02-17T04:19:38.053Z,5.97
2023-02-17T04:24:39.020Z,4.65
2023-02-17T04:29:39.755Z,3.58
2023-02-17T04:34:40.628Z,3.28
2023-02-17T04:39:41.462Z,3.60
2023-02-17T04:44:42.237Z,3.30
2023-02-17T04:49:42.975Z,3.33
2023-02-17T04:54:43.754Z,3.40
2023-02-17T04:59:44.792Z,2.87
2023-02-17T05:04:46.183Z,3.85
2023-02-17T05:09:47.187Z,3.17
2023-02-17T05:14:47.954Z,3.70
2023-02-17T05:19:48.737Z,3.37
2023-02-17T05:24:49.533Z,3.83
2023-02-17T05:29:50.942Z,3.83
2023-02-17T05:34:51.778Z,4.10
2023-02-17T05:39:52.551Z,4.18
2023-02-17T05:44:54.449Z,3.87
2023-02-17T05:49:55.182Z,3.97
2023-02-17T05:54:55.970Z,3.90
2023-02-17T05:59:56.716Z,4.30
2023-02-17T06:04:57.844Z,4.28
2023-02-17T06:09:58.687Z,3.95
2023-02-17T06:14:59.790Z,4.82
2023-02-17T06:20:00.584Z,5.85
2023-02-17T06:25:03.471Z,5.53
2023-02-17T06:30:05.459Z,6.87
2023-02-17T06:35:06.813Z,6.82
2023-02-17T06:40:09.231Z,6.70
2023-02-17T06:45:10.076Z,7.33
2023-02-17T06:50:10.910Z,7.50
2023-02-17T06:55:11.824Z,7.32
2023-02-17T07:00:13.108Z,7.95
2023-02-17T07:05:14.123Z,8.57
2023-02-17T07:10:14.935Z,9.88
2023-02-17T07:15:15.818Z,18.73
2023-02-17T07:20:16.723Z,15.15
2023-02-17T07:25:17.562Z,10.38
2023-02-17T07:30:18.886Z,9.15
2023-02-17T07:35:19.832Z,9.07
2023-02-17T07:40:20.664Z,8.80
2023-02-17T07:45:21.406Z,10.23
2023-02-17T07:50:22.142Z,8.18
2023-02-17T07:55:23.552Z,10.75
2023-02-17T08:00:24.381Z,8.32
2023-02-17T08:05:25.866Z,8.95
2023-02-17T08:10:45.519Z,7.50
2023-02-17T08:15:46.328Z,6.32
2023-02-17T08:20:47.151Z,5.87
2023-02-17T08:25:47.926Z,6.25
2023-02-17T08:30:48.870Z,6.60
2023-02-17T08:35:49.963Z,6.15
2023-02-17T08:40:50.763Z,7.15
2023-02-17T08:45:51.518Z,6.30
2023-02-17T08:50:52.345Z,6.50
2023-02-17T08:55:53.228Z,5.65
2023-02-17T09:00:54.014Z,5.60
2023-02-17T09:05:56.457Z,4.82
2023-02-17T09:10:59.025Z,3.87
2023-02-17T09:15:59.988Z,3.53
2023-02-17T09:21:09.755Z,3.20
2023-02-17T09:26:12.934Z,2.53
2023-02-17T09:36:40.738Z,3.20
2023-02-17T09:41:44.850Z,3.33
2023-02-17T09:47:51.048Z,2.87
2023-02-17T09:53:00.354Z,4.07
2023-02-17T09:58:12.128Z,4.25
2023-02-17T10:03:42.440Z,2.90
2023-02-17T10:11:32.774Z,4.90
2023-02-17T10:16:47.992Z,3.62
2023-02-17T10:21:58.176Z,3.10
2023-02-17T10:27:11.495Z,2.92
2023-02-17T10:39:23.589Z,2.70
2023-02-17T10:44:25.047Z,2.50
2023-02-17T10:49:34.828Z,2.22
2023-02-17T10:54:41.452Z,2.37
2023-02-17T10:59:44.225Z,3.15
2023-02-17T11:04:48.511Z,2.47
2023-02-17T11:09:53.121Z,2.15
2023-02-17T11:14:55.270Z,1.75
2023-02-17T11:20:03.805Z,2.17
2023-02-17T11:25:20.412Z,1.80
2023-02-17T11:30:22.552Z,2.00
2023-02-17T11:35:45.629Z,1.40
2023-02-17T11:41:03.864Z,1.65
2023-02-17T11:48:16.009Z,1.60
2023-02-17T11:53:34.380Z,1.60
2023-02-17T11:59:40.242Z,1.52
2023-02-17T12:05:04.452Z,1.70
2023-02-17T12:11:56.281Z,1.60
2023-02-17T12:17:13.896Z,1.30
2023-02-17T12:22:45.396Z,1.20
2023-02-17T12:29:50.014Z,1.20
2023-02-17T12:40:19.630Z,1.40
2023-02-17T12:45:27.093Z,1.58
2023-02-17T12:50:42.297Z,1.27
2023-02-17T12:55:50.233Z,1.50
2023-02-17T13:01:04.931Z,2.58
2023-02-17T13:06:31.872Z,2.05
2023-02-17T13:11:34.840Z,1.48
2023-02-17T13:16:43.498Z,1.40
2023-02-17T13:21:55.711Z,1.95
2023-02-17T13:26:56.735Z,1.60
2023-02-17T13:32:01.472Z,1.50
2023-02-17T13:44:03.505Z,1.50
2023-02-17T13:49:06.306Z,1.50
2023-02-17T13:54:08.649Z,1.50
2023-02-17T13:59:25.184Z,1.50
2023-02-17T14:04:29.718Z,1.52
2023-02-17T14:09:32.755Z,1.23
2023-02-17T14:14:36.709Z,1.23
2023-02-17T14:19:45.525Z,1.37
2023-02-17T14:24:58.880Z,1.30
2023-02-17T14:35:28.332Z,1.70
2023-02-17T14:40:29.082Z,1.23
2023-02-17T14:45:29.852Z,1.25
2023-02-17T14:50:36.140Z,1.80
2023-02-17T14:55:52.624Z,1.27
2023-02-17T15:00:53.408Z,3.10
2023-02-17T15:05:54.747Z,1.10
2023-02-17T15:10:55.533Z,5.28
2023-02-17T15:15:56.382Z,1.83
2023-02-17T15:20:57.181Z,2.53
2023-02-17T15:25:58.327Z,6.60
2023-02-17T15:31:01.150Z,2.33
2023-02-17T15:36:02.190Z,3.05
2023-02-17T15:41:03.856Z,4.30
2023-02-17T15:46:11.980Z,4.12
2023-02-17T15:51:18.495Z,1.55
2023-02-17T15:56:23.179Z,1.48
2023-02-17T16:01:31.949Z,1.30
2023-02-17T16:06:32.739Z,1.12
2023-02-17T16:11:35.068Z,1.05
2023-02-17T16:16:35.851Z,1.00
2023-02-17T16:21:36.703Z,1.75
2023-02-17T16:26:38.680Z,1.85
2023-02-17T16:31:39.553Z,1.30
2023-02-17T16:36:40.487Z,2.37
2023-02-17T16:41:41.454Z,1.60
2023-02-17T16:46:48.110Z,1.80
2023-02-17T16:51:48.956Z,2.55
2023-02-17T16:56:51.530Z,2.70
2023-02-17T17:01:52.987Z,2.33
2023-02-17T17:06:53.823Z,2.28
2023-02-17T17:11:54.628Z,2.30
2023-02-17T17:17:00.022Z,2.00
2023-02-17T17:22:01.207Z,2.37
2023-02-17T17:27:02.669Z,2.75
2023-02-17T17:32:03.860Z,3.10
2023-02-17T17:40:49.200Z,2.65
2023-02-17T17:45:51.147Z,3.00
2023-02-17T17:50:52.116Z,2.55
2023-02-17T17:55:53.295Z,3.80
2023-02-17T18:00:54.454Z,3.90
2023-02-17T18:05:55.421Z,3.70
2023-02-17T18:10:56.718Z,4.62
2023-02-17T18:15:57.670Z,3.90
2023-02-17T18:20:58.525Z,3.67
2023-02-17T18:25:59.291Z,6.07
2023-02-17T18:31:07.560Z,3.72
2023-02-17T18:36:14.136Z,4.62
2023-02-17T18:41:26.477Z,4.35
2023-02-17T18:46:28.372Z,4.83
2023-02-17T18:51:29.273Z,4.62
2023-02-17T18:56:32.660Z,4.45
2023-02-17T19:01:38.382Z,5.68
2023-02-17T19:06:39.864Z,5.53
2023-02-17T19:11:40.652Z,5.32
2023-02-17T19:16:41.413Z,5.20
2023-02-17T19:21:42.182Z,5.25
2023-02-17T19:26:43.912Z,5.25
2023-02-17T19:31:45.297Z,5.53
2023-02-17T19:36:46.238Z,6.35
2023-02-17T19:41:47.124Z,6.72
2023-02-17T19:46:48.000Z,6.12
2023-02-17T19:51:49.323Z,6.43
2023-02-17T19:56:50.595Z,6.18
2023-02-17T20:01:51.621Z,6.97
2023-02-17T20:06:53.369Z,7.18
2023-02-17T20:11:54.145Z,6.43
2023-02-17T20:16:55.728Z,6.55
2023-02-17T20:21:56.570Z,7.03
2023-02-17T20:26:57.366Z,7.03
2023-02-17T20:31:58.334Z,7.15
2023-02-17T20:37:00.226Z,7.20
2023-02-17T20:42:02.788Z,7.85
2023-02-17T20:47:03.960Z,7.57
2023-02-17T20:52:05.167Z,7.72
2023-02-17T20:57:12.791Z,7.57
2023-02-17T21:02:16.409Z,6.93
2023-02-17T21:07:17.191Z,7.00
2023-02-17T21:12:18.648Z,7.75
2023-02-17T21:17:19.388Z,7.47
2023-02-17T21:22:20.146Z,8.30
2023-02-17T21:27:20.927Z,7.53
2023-02-17T21:32:23.497Z,7.37
2023-02-17T21:37:24.330Z,7.67
2023-02-17T21:42:45.717Z,7.15
2023-02-17T21:47:46.771Z,8.23
2023-02-17T21:52:47.542Z,9.20
2023-02-17T21:57:48.427Z,7.95
2023-02-17T22:02:49.481Z,8.75
2023-02-17T22:07:50.481Z,7.82
2023-02-17T22:12:52.884Z,7.85
2023-02-17T22:17:53.788Z,7.95
2023-02-17T22:22:54.593Z,9.13
2023-02-17T22:27:55.376Z,10.10
2023-02-17T22:32:56.313Z,9.55
2023-02-17T22:37:57.853Z,9.32
2023-02-17T22:43:01.819Z,14.90
2023-02-17T22:48:02.683Z,9.55
2023-02-17T22:53:03.459Z,9.05
2023-02-17T22:58:04.242Z,8.95
2023-02-17T23:03:05.099Z,10.70
2023-02-17T23:08:05.863Z,9.13
2023-02-17T23:13:06.854Z,7.68
2023-02-17T23:18:13.889Z,7.85
2023-02-17T23:23:15.284Z,7.68
2023-02-17T23:28:18.234Z,7.65
2023-02-17T23:33:24.428Z,8.02
2023-02-17T23:38:25.210Z,7.30
2023-02-17T23:43:27.002Z,7.15
2023-02-17T23:48:27.823Z,6.80
2023-02-17T23:53:28.703Z,8.95
2023-02-17T23:58:30.222Z,5.45
